createdAt,value
2023-02-06T00:00:11.316Z,2.00
2023-02-06T00:02:39.036Z,2.00
2023-02-06T00:05:07.092Z,2.10
2023-02-06T00:07:34.841Z,2.00
2023-02-06T00:10:02.535Z,2.00
2023-02-06T00:12:31.688Z,2.13
2023-02-06T00:14:59.364Z,2.10
2023-02-06T00:17:27.140Z,2.40
2023-02-06T00:19:54.931Z,2.30
2023-02-06T00:22:22.648Z,2.10
2023-02-06T00:24:50.368Z,2.20
2023-02-06T00:27:18.175Z,2.50
2023-02-06T00:29:47.301Z,2.40
2023-02-06T00:32:15.020Z,2.37
2023-02-06T00:34:42.752Z,2.50
2023-02-06T00:37:10.601Z,2.40
2023-02-06T00:39:38.327Z,2.57
2023-02-06T00:42:05.999Z,2.57
2023-02-06T00:44:33.657Z,2.50
2023-02-06T00:47:02.765Z,2.70
2023-02-06T00:49:30.472Z,2.77
2023-02-06T00:51:58.091Z,2.63
2023-02-06T00:54:25.814Z,2.80
2023-02-06T00:56:53.544Z,2.70
2023-02-06T00:59:21.357Z,3.00
2023-02-06T01:01:49.095Z,2.90
2023-02-06T01:04:18.417Z,2.97
2023-02-06T01:06:46.132Z,2.97
2023-02-06T01:09:13.954Z,2.97
2023-02-06T01:11:41.615Z,3.10
2023-02-06T01:14:09.341Z,3.10
2023-02-06T01:16:36.986Z,3.10
2023-02-06T01:19:04.645Z,2.90
2023-02-06T01:21:33.744Z,3.00
2023-02-06T01:24:01.454Z,3.27
2023-02-06T01:26:29.412Z,3.07
2023-02-06T01:28:57.439Z,3.00
2023-02-06T01:31:26.409Z,3.10
2023-02-06T01:33:54.307Z,2.83
2023-02-06T01:36:22.569Z,3.00
2023-02-06T01:38:52.004Z,2.97
2023-02-06T01:41:20.451Z,3.10
2023-02-06T01:43:48.831Z,2.80
2023-02-06T01:46:16.566Z,3.37
2023-02-06T01:48:45.501Z,3.10
2023-02-06T01:51:15.386Z,3.23
2023-02-06T01:53:44.235Z,3.10
2023-02-06T01:56:13.798Z,3.07
2023-02-06T01:58:43.744Z,3.53
2023-02-06T02:01:12.093Z,3.23
2023-02-06T02:03:41.095Z,3.30
2023-02-06T02:06:10.225Z,3.63
2023-02-06T02:08:39.179Z,3.63
2023-02-06T02:11:07.992Z,3.57
2023-02-06T02:13:38.338Z,3.47
2023-02-06T02:16:12.157Z,3.70
2023-02-06T02:18:49.231Z,3.73
2023-02-06T02:21:28.817Z,3.60
2023-02-06T02:24:00.900Z,4.00
2023-02-06T02:26:38.895Z,3.80
2023-02-06T02:29:39.847Z,3.73
2023-02-06T02:32:22.484Z,3.80
2023-02-06T02:35:06.397Z,3.90
2023-02-06T02:37:40.610Z,3.97
2023-02-06T02:40:13.410Z,3.60
2023-02-06T02:42:44.596Z,4.07
2023-02-06T02:45:14.572Z,4.00
2023-02-06T02:47:45.828Z,4.30
2023-02-06T02:50:14.938Z,4.03
2023-02-06T02:52:44.434Z,3.73
2023-02-06T02:55:19.408Z,4.20
2023-02-06T02:57:47.756Z,4.13
2023-02-06T03:00:17.722Z,4.30
2023-02-06T03:02:47.261Z,3.50
2023-02-06T03:05:18.396Z,3.90
2023-02-06T03:07:49.817Z,3.80
2023-02-06T03:10:19.840Z,3.93
2023-02-06T03:12:52.344Z,4.23
2023-02-06T03:15:25.418Z,4.17
2023-02-06T03:17:56.172Z,4.50
2023-02-06T03:20:24.342Z,4.23
2023-02-06T03:22:54.851Z,4.47
2023-02-06T03:25:26.304Z,4.77
2023-02-06T03:27:54.852Z,4.30
2023-02-06T03:30:24.328Z,4.80
2023-02-06T03:32:55.533Z,5.40
2023-02-06T03:35:24.664Z,6.00
2023-02-06T03:37:54.250Z,5.30
2023-02-06T03:40:22.343Z,5.70
2023-02-06T03:42:51.506Z,5.33
2023-02-06T03:45:21.389Z,5.67
2023-02-06T03:47:49.795Z,5.70
2023-02-06T03:50:18.532Z,5.63
2023-02-06T03:52:48.145Z,6.33
2023-02-06T03:55:19.464Z,6.07
2023-02-06T03:57:48.219Z,6.40
2023-02-06T04:00:16.470Z,6.37
2023-02-06T04:02:46.144Z,6.23
2023-02-06T04:05:13.877Z,6.17
2023-02-06T04:07:41.574Z,6.47
2023-02-06T04:10:09.713Z,7.83
2023-02-06T04:12:39.277Z,7.50
2023-02-06T04:15:07.307Z,7.53
2023-02-06T04:17:49.775Z,6.97
2023-02-06T04:20:22.816Z,7.53
2023-02-06T04:22:50.555Z,7.40
2023-02-06T04:25:18.547Z,7.57
2023-02-06T04:27:47.738Z,8.00
2023-02-06T04:30:15.790Z,7.90
2023-02-06T04:32:43.531Z,8.03
2023-02-06T04:35:11.555Z,8.40
2023-02-06T04:37:39.390Z,8.57
2023-02-06T04:40:07.862Z,8.70
2023-02-06T04:42:35.581Z,8.37
2023-02-06T04:45:05.089Z,8.60
2023-02-06T04:47:32.861Z,9.20
2023-02-06T04:50:00.643Z,9.73
2023-02-06T04:52:28.531Z,8.90
2023-02-06T04:54:56.291Z,10.30
2023-02-06T04:57:24.389Z,9.43
2023-02-06T04:59:52.168Z,9.40
2023-02-06T05:02:21.373Z,10.20
2023-02-06T05:04:49.216Z,9.00
2023-02-06T05:07:16.999Z,8.87
2023-02-06T05:09:44.853Z,9.57
2023-02-06T05:12:14.249Z,9.33
2023-02-06T05:14:42.123Z,9.63
2023-02-06T05:17:10.081Z,10.73
2023-02-06T05:19:39.216Z,10.50
2023-02-06T05:22:07.044Z,10.03
2023-02-06T05:24:34.774Z,10.63
2023-02-06T05:27:02.594Z,11.20
2023-02-06T05:29:30.500Z,10.87
2023-02-06T05:31:58.370Z,11.37
2023-02-06T05:34:26.312Z,12.57
2023-02-06T05:36:55.486Z,12.87
2023-02-06T05:39:23.357Z,13.17
2023-02-06T05:41:51.013Z,13.00
2023-02-06T05:44:18.861Z,13.13
2023-02-06T05:46:48.405Z,12.63
2023-02-06T05:49:16.263Z,12.53
2023-02-06T05:51:43.996Z,13.27
2023-02-06T05:54:13.313Z,12.47
2023-02-06T05:56:41.108Z,13.80
2023-02-06T05:59:08.831Z,13.27
2023-02-06T06:01:36.550Z,12.70
2023-02-06T06:04:04.277Z,13.63
2023-02-06T06:06:32.124Z,11.63
2023-02-06T06:09:01.416Z,12.67
2023-02-06T06:11:31.872Z,12.80
2023-02-06T06:13:59.613Z,13.23
2023-02-06T06:16:27.472Z,13.70
2023-02-06T06:18:55.853Z,14.07
2023-02-06T06:21:23.696Z,14.37
2023-02-06T06:23:51.452Z,13.57
2023-02-06T06:26:19.295Z,14.30
2023-02-06T06:28:48.564Z,14.43
2023-02-06T06:31:16.499Z,13.10
2023-02-06T06:33:44.408Z,14.37
2023-02-06T06:36:14.524Z,15.07
2023-02-06T06:38:42.579Z,14.73
2023-02-06T06:41:10.294Z,14.47
2023-02-06T06:43:38.036Z,14.20
2023-02-06T06:46:07.430Z,13.87
2023-02-06T06:48:36.620Z,14.43
2023-02-06T06:51:04.407Z,13.33
2023-02-06T06:53:32.073Z,14.27
2023-02-06T06:56:03.583Z,15.13
2023-02-06T06:58:31.511Z,14.80
2023-02-06T07:00:59.286Z,14.73
2023-02-06T07:03:28.721Z,14.73
2023-02-06T07:05:56.464Z,15.90
2023-02-06T07:08:24.305Z,16.63
2023-02-06T07:10:52.012Z,15.60
2023-02-06T07:13:19.793Z,15.77
2023-02-06T07:15:47.472Z,15.73
2023-02-06T07:18:15.259Z,15.77
2023-02-06T07:20:44.525Z,15.60
2023-02-06T07:23:12.277Z,14.87
2023-02-06T07:25:40.088Z,16.07
2023-02-06T07:28:08.218Z,15.60
2023-02-06T07:30:35.952Z,15.40
2023-02-06T07:33:05.296Z,16.10
2023-02-06T07:35:33.099Z,15.17
2023-02-06T07:38:02.203Z,15.37
2023-02-06T07:40:44.070Z,14.77
2023-02-06T07:43:12.594Z,15.00
2023-02-06T07:45:40.345Z,14.47
2023-02-06T07:48:08.419Z,14.83
2023-02-06T07:50:36.414Z,14.17
2023-02-06T07:53:05.547Z,14.73
2023-02-06T07:55:33.343Z,15.63
2023-02-06T07:58:00.995Z,15.63
2023-02-06T08:00:28.753Z,15.83
2023-02-06T08:02:56.594Z,16.23
2023-02-06T08:05:24.285Z,16.50
2023-02-06T08:07:52.335Z,15.60
2023-02-06T08:10:21.496Z,16.00
2023-02-06T08:12:49.429Z,15.70
2023-02-06T08:15:17.407Z,16.37
2023-02-06T08:17:45.258Z,16.60
2023-02-06T08:20:13.700Z,15.07
2023-02-06T08:22:41.452Z,15.53
2023-02-06T08:25:09.441Z,15.30
2023-02-06T08:27:38.618Z,15.57
2023-02-06T08:30:06.889Z,14.80
2023-02-06T08:32:35.019Z,14.83
2023-02-06T08:35:02.878Z,14.63
2023-02-06T08:37:32.274Z,14.53
2023-02-06T08:40:00.160Z,14.43
2023-02-06T08:42:27.894Z,13.83
2023-02-06T08:44:57.063Z,13.87
2023-02-06T08:47:25.010Z,13.87
2023-02-06T08:49:52.781Z,14.00
2023-02-06T08:52:20.487Z,14.57
2023-02-06T08:54:48.230Z,14.70
2023-02-06T08:57:15.884Z,13.20
2023-02-06T08:59:43.877Z,14.10
2023-02-06T09:02:13.065Z,13.10
2023-02-06T09:04:42.758Z,14.77
2023-02-06T09:07:10.513Z,14.77
2023-02-06T09:09:38.316Z,14.33
2023-02-06T09:12:06.153Z,13.53
2023-02-06T09:14:35.455Z,14.23
2023-02-06T09:17:03.459Z,13.70
2023-02-06T09:19:32.706Z,13.70
2023-02-06T09:22:00.527Z,13.73
2023-02-06T09:24:30.364Z,12.53
2023-02-06T09:27:00.190Z,12.80
2023-02-06T09:29:31.806Z,12.47
2023-02-06T09:32:00.181Z,12.00
2023-02-06T09:34:28.434Z,11.73
2023-02-06T09:36:57.995Z,11.77
2023-02-06T09:39:25.974Z,11.60
2023-02-06T09:41:55.207Z,10.97
2023-02-06T09:44:26.463Z,10.97
2023-02-06T09:47:00.447Z,11.83
2023-02-06T09:49:31.171Z,11.63
2023-02-06T09:52:07.292Z,11.00
2023-02-06T09:54:41.035Z,11.70
2023-02-06T09:57:13.088Z,11.03
2023-02-06T09:59:45.046Z,10.63
2023-02-06T10:02:21.821Z,10.77
2023-02-06T10:04:56.008Z,11.23
2023-02-06T10:07:30.935Z,10.97
2023-02-06T10:10:02.861Z,11.87
2023-02-06T10:12:34.901Z,10.87
2023-02-06T10:15:04.343Z,11.10
2023-02-06T10:17:33.768Z,10.40
2023-02-06T10:20:03.486Z,10.80
2023-02-06T10:22:35.267Z,10.80
2023-02-06T10:25:24.078Z,10.93
2023-02-06T10:27:54.676Z,11.00
2023-02-06T10:30:26.352Z,10.60
2023-02-06T10:32:56.923Z,10.33
2023-02-06T10:35:30.735Z,10.47
2023-02-06T10:38:13.302Z,10.10
2023-02-06T10:40:47.667Z,9.37
2023-02-06T10:43:20.289Z,10.17
2023-02-06T10:45:52.227Z,9.80
2023-02-06T10:48:24.722Z,10.03
2023-02-06T10:50:54.452Z,9.50
2023-02-06T10:53:25.217Z,9.90
2023-02-06T10:55:56.640Z,10.17
2023-02-06T10:58:26.618Z,10.17
2023-02-06T11:00:55.187Z,9.67
2023-02-06T11:03:25.277Z,9.20
2023-02-06T11:05:53.201Z,9.50
2023-02-06T11:08:22.968Z,9.20
2023-02-06T11:10:50.786Z,9.47
2023-02-06T11:13:24.358Z,9.30
2023-02-06T11:15:55.406Z,9.10
2023-02-06T11:18:25.295Z,9.37
2023-02-06T11:20:55.746Z,8.80
2023-02-06T11:23:24.659Z,9.30
2023-02-06T11:25:58.190Z,8.67
2023-02-06T11:28:28.013Z,9.27
2023-02-06T11:30:57.499Z,9.40
2023-02-06T11:33:28.866Z,9.03
2023-02-06T11:36:00.034Z,8.87
2023-02-06T11:38:29.536Z,9.13
2023-02-06T11:41:00.880Z,8.70
2023-02-06T11:43:31.372Z,8.57
2023-02-06T11:46:23.154Z,8.90
2023-02-06T11:49:01.987Z,9.40
2023-02-06T11:51:46.066Z,8.57
2023-02-06T11:54:19.956Z,8.30
2023-02-06T11:56:56.240Z,8.53
2023-02-06T11:59:27.233Z,8.03
2023-02-06T12:01:55.397Z,8.13
2023-02-06T12:04:25.227Z,8.40
2023-02-06T12:07:00.264Z,9.07
2023-02-06T12:09:28.198Z,9.20
2023-02-06T12:11:59.692Z,9.07
2023-02-06T12:14:31.947Z,9.57
2023-02-06T12:17:00.797Z,9.20
2023-02-06T12:19:31.814Z,9.97
2023-02-06T12:22:02.606Z,9.60
2023-02-06T12:24:32.627Z,10.57
2023-02-06T12:27:02.690Z,10.50
2023-02-06T12:29:34.565Z,10.50
2023-02-06T12:32:05.744Z,10.70
2023-02-06T12:34:43.468Z,11.00
2023-02-06T12:37:15.215Z,10.97
2023-02-06T12:39:43.389Z,10.80
2023-02-06T12:42:18.625Z,10.30
2023-02-06T12:44:50.414Z,10.33
2023-02-06T12:47:21.611Z,11.23
2023-02-06T12:49:53.023Z,11.27
2023-02-06T12:52:24.970Z,11.80
2023-02-06T12:54:55.750Z,10.63
2023-02-06T12:57:24.875Z,11.33
2023-02-06T13:00:14.019Z,10.67
2023-02-06T13:02:49.924Z,11.07
2023-02-06T13:05:22.217Z,10.73
2023-02-06T13:07:50.599Z,10.93
2023-02-06T13:10:19.920Z,10.73
2023-02-06T13:12:54.174Z,11.27
2023-02-06T13:15:24.985Z,11.63
2023-02-06T13:17:54.376Z,12.10
2023-02-06T13:20:23.200Z,11.93
2023-02-06T13:22:52.025Z,11.10
2023-02-06T13:25:53.739Z,11.03
2023-02-06T13:28:39.938Z,10.67
2023-02-06T13:31:21.533Z,10.97
2023-02-06T13:33:51.395Z,10.43
2023-02-06T13:36:20.154Z,10.73
2023-02-06T13:38:47.951Z,11.00
2023-02-06T13:41:19.992Z,9.90
2023-02-06T13:43:50.468Z,11.10
2023-02-06T13:46:21.422Z,10.37
2023-02-06T13:49:01.937Z,9.90
2023-02-06T13:51:41.467Z,9.87
2023-02-06T13:54:28.039Z,10.50
2023-02-06T13:57:15.487Z,10.40
2023-02-06T13:59:46.133Z,9.90
2023-02-06T14:02:19.483Z,8.60
2023-02-06T14:04:47.799Z,9.40
2023-02-06T14:07:28.948Z,9.07
2023-02-06T14:10:19.925Z,8.97
2023-02-06T14:12:53.609Z,9.33
2023-02-06T14:15:26.660Z,9.30
2023-02-06T14:18:13.602Z,9.03
2023-02-06T14:20:45.374Z,7.67
2023-02-06T14:23:17.460Z,5.60
2023-02-06T14:25:49.989Z,4.90
2023-02-06T14:28:23.234Z,4.40
2023-02-06T14:30:55.462Z,4.37
2023-02-06T14:33:36.277Z,4.57
2023-02-06T14:36:09.342Z,4.03
2023-02-06T14:38:54.790Z,3.77
2023-02-06T14:41:22.712Z,3.70
2023-02-06T14:43:51.633Z,3.53
2023-02-06T14:46:21.065Z,3.40
2023-02-06T14:48:52.020Z,3.07
2023-02-06T14:51:22.151Z,2.80
2023-02-06T14:53:53.736Z,2.60
2023-02-06T14:56:25.884Z,2.40
2023-02-06T14:58:53.815Z,2.20
2023-02-06T15:01:23.433Z,2.07
2023-02-06T15:03:54.849Z,2.00
2023-02-06T15:06:31.018Z,2.10
2023-02-06T15:08:58.821Z,1.80
2023-02-06T15:11:32.342Z,1.80
2023-02-06T15:14:01.096Z,1.80
2023-02-06T15:16:30.503Z,1.80
2023-02-06T15:19:13.005Z,1.80
2023-02-06T15:21:41.791Z,1.70
2023-02-06T15:24:16.073Z,1.70
2023-02-06T15:26:46.230Z,1.70
2023-02-06T15:29:18.311Z,1.60
2023-02-06T15:31:48.216Z,1.67
2023-02-06T15:34:19.289Z,1.60
2023-02-06T15:36:47.171Z,1.60
2023-02-06T15:39:15.883Z,1.60
2023-02-06T15:41:46.161Z,1.67
2023-02-06T15:44:18.808Z,1.60
2023-02-06T15:46:49.182Z,1.60
2023-02-06T15:49:20.117Z,1.60
2023-02-06T15:51:52.582Z,1.50
2023-02-06T15:54:22.491Z,1.60
2023-02-06T15:56:51.258Z,1.80
2023-02-06T15:59:20.998Z,1.70
2023-02-06T16:01:49.386Z,1.60
2023-02-06T16:04:19.912Z,1.50
2023-02-06T16:07:00.117Z,1.57
2023-02-06T16:09:28.002Z,1.60
2023-02-06T16:11:57.075Z,1.60
2023-02-06T16:14:27.398Z,1.70
2023-02-06T16:16:59.523Z,1.70
2023-02-06T16:19:29.718Z,1.63
2023-02-06T16:22:15.181Z,1.70
2023-02-06T16:24:43.041Z,1.60
2023-02-06T16:27:17.204Z,1.60
2023-02-06T16:29:47.471Z,1.53
2023-02-06T16:32:16.597Z,1.50
2023-02-06T16:34:45.437Z,1.60
2023-02-06T16:37:15.985Z,1.50
2023-02-06T16:39:44.665Z,1.60
2023-02-06T16:42:16.133Z,1.50
2023-02-06T16:44:46.220Z,1.60
2023-02-06T16:47:15.981Z,1.37
2023-02-06T16:49:44.375Z,1.60
2023-02-06T16:52:15.224Z,1.70
2023-02-06T16:54:45.171Z,1.53
2023-02-06T16:57:16.712Z,1.60
2023-02-06T16:59:44.484Z,1.47
2023-02-06T17:02:13.183Z,1.50
2023-02-06T17:04:41.085Z,1.53
2023-02-06T17:07:12.851Z,1.67
2023-02-06T17:09:40.548Z,1.90
2023-02-06T17:12:12.108Z,2.40
2023-02-06T17:14:40.004Z,2.03
2023-02-06T17:17:07.809Z,2.40
2023-02-06T17:19:35.515Z,2.50
2023-02-06T17:22:03.286Z,3.00
2023-02-06T17:24:31.051Z,2.93
2023-02-06T17:27:01.488Z,2.87
2023-02-06T17:29:31.777Z,3.57
2023-02-06T17:31:59.785Z,3.97
2023-02-06T17:34:29.550Z,4.17
2023-02-06T17:36:57.486Z,4.10
2023-02-06T17:39:25.520Z,4.40
2023-02-06T17:41:53.296Z,5.27
2023-02-06T17:44:20.994Z,5.07
2023-02-06T17:46:50.288Z,5.67
2023-02-06T17:49:18.300Z,6.07
2023-02-06T17:51:46.414Z,6.50
2023-02-06T17:54:14.698Z,6.87
2023-02-06T17:56:42.828Z,7.37
2023-02-06T17:59:10.588Z,7.67
2023-02-06T18:01:38.285Z,7.63
2023-02-06T18:04:07.649Z,9.37
2023-02-06T18:06:36.424Z,9.47
2023-02-06T18:09:04.236Z,9.90
2023-02-06T18:11:31.967Z,10.13
2023-02-06T18:13:59.737Z,11.60
2023-02-06T18:16:28.352Z,11.63
2023-02-06T18:18:56.139Z,12.50
2023-02-06T18:21:25.504Z,12.80
2023-02-06T18:23:54.500Z,13.27
2023-02-06T18:26:24.287Z,14.63
2023-02-06T18:28:52.083Z,13.67
2023-02-06T18:31:23.937Z,13.70
2023-02-06T18:33:52.077Z,13.43
2023-02-06T18:36:19.856Z,15.00
2023-02-06T18:38:49.106Z,14.57
2023-02-06T18:41:34.646Z,13.80
2023-02-06T18:44:02.584Z,14.40
2023-02-06T18:46:30.373Z,14.27
2023-02-06T18:48:58.337Z,13.83
2023-02-06T18:51:26.290Z,14.07
2023-02-06T18:53:55.385Z,15.87
2023-02-06T18:56:23.253Z,15.93
2023-02-06T18:58:51.041Z,15.60
2023-02-06T19:01:20.442Z,15.27
2023-02-06T19:03:48.467Z,14.20
2023-02-06T19:06:17.523Z,15.53
2023-02-06T19:08:46.731Z,15.40
2023-02-06T19:11:16.363Z,14.63
2023-02-06T19:13:44.235Z,13.60
2023-02-06T19:16:13.524Z,13.73
2023-02-06T19:18:42.245Z,13.97
2023-02-06T19:21:11.912Z,14.73
2023-02-06T19:23:40.165Z,15.63
2023-02-06T19:26:08.650Z,15.27
2023-02-06T19:28:38.566Z,13.90
2023-02-06T19:31:07.182Z,14.63
2023-02-06T19:33:35.749Z,14.03
2023-02-06T19:36:06.654Z,14.90
2023-02-06T19:38:34.430Z,15.30
2023-02-06T19:41:06.196Z,15.67
2023-02-06T19:43:34.308Z,14.83
2023-02-06T19:46:04.997Z,15.47
2023-02-06T19:48:32.766Z,14.97
2023-02-06T19:51:03.312Z,15.33
2023-02-06T19:53:32.852Z,14.47
2023-02-06T19:56:00.576Z,14.83
2023-02-06T19:58:31.000Z,14.37
2023-02-06T20:00:59.035Z,13.17
2023-02-06T20:03:28.291Z,14.83
2023-02-06T20:05:56.016Z,13.83
2023-02-06T20:08:23.822Z,13.93
2023-02-06T20:10:51.534Z,14.53
2023-02-06T20:13:19.225Z,14.00
2023-02-06T20:15:46.955Z,14.03
2023-02-06T20:18:14.679Z,14.50
2023-02-06T20:20:43.837Z,13.73
2023-02-06T20:23:11.572Z,13.57
2023-02-06T20:25:39.382Z,13.83
2023-02-06T20:28:07.142Z,13.60
2023-02-06T20:30:35.129Z,13.23
2023-02-06T20:33:02.996Z,13.63
2023-02-06T20:35:31.325Z,13.40
2023-02-06T20:38:00.645Z,14.23
2023-02-06T20:40:28.552Z,13.07
2023-02-06T20:42:56.328Z,13.40
2023-02-06T20:45:24.068Z,13.03
2023-02-06T20:47:51.781Z,13.07
2023-02-06T20:50:19.774Z,13.10
2023-02-06T20:52:47.532Z,13.30
2023-02-06T20:55:16.774Z,14.07
2023-02-06T20:57:44.632Z,13.00
2023-02-06T21:00:13.831Z,12.77
2023-02-06T21:02:41.717Z,13.03
2023-02-06T21:05:09.581Z,12.93
2023-02-06T21:07:38.962Z,13.53
2023-02-06T21:10:06.941Z,13.63
2023-02-06T21:12:36.135Z,13.17
2023-02-06T21:15:05.873Z,12.90
2023-02-06T21:17:33.672Z,13.20
2023-02-06T21:20:01.436Z,12.93
2023-02-06T21:22:29.310Z,13.67
2023-02-06T21:24:57.176Z,13.20
2023-02-06T21:27:24.977Z,13.77
2023-02-06T21:29:54.241Z,12.43
2023-02-06T21:32:22.181Z,12.93
2023-02-06T21:34:49.927Z,13.47
2023-02-06T21:37:18.058Z,13.63
2023-02-06T21:39:45.914Z,13.83
2023-02-06T21:42:14.548Z,14.50
2023-02-06T21:44:42.351Z,13.77
2023-02-06T21:47:11.462Z,13.40
2023-02-06T21:49:39.471Z,13.43
2023-02-06T21:52:07.312Z,13.27
2023-02-06T21:54:35.021Z,12.93
2023-02-06T21:57:02.719Z,13.37
2023-02-06T21:59:32.976Z,12.90
2023-02-06T22:02:00.856Z,12.97
2023-02-06T22:04:29.958Z,13.00
2023-02-06T22:06:57.669Z,13.60
2023-02-06T22:09:25.666Z,13.93
2023-02-06T22:11:54.118Z,12.90
2023-02-06T22:14:21.951Z,12.83
2023-02-06T22:16:49.921Z,12.90
2023-02-06T22:19:17.979Z,12.63
2023-02-06T22:21:47.313Z,13.47
2023-02-06T22:24:15.370Z,13.23
2023-02-06T22:26:43.388Z,12.87
2023-02-06T22:29:12.676Z,12.57
2023-02-06T22:31:43.199Z,13.30
2023-02-06T22:34:11.999Z,13.70
2023-02-06T22:36:39.769Z,13.67
2023-02-06T22:39:09.694Z,12.77
2023-02-06T22:41:39.688Z,13.43
2023-02-06T22:44:07.878Z,13.43
2023-02-06T22:46:36.578Z,13.17
2023-02-06T22:49:05.636Z,13.47
2023-02-06T22:51:33.517Z,13.80
2023-02-06T22:54:01.679Z,13.83
2023-02-06T22:56:32.363Z,13.57
2023-02-06T22:59:01.302Z,14.00
2023-02-06T23:01:30.746Z,13.17
2023-02-06T23:03:58.909Z,12.93
2023-02-06T23:06:27.370Z,11.87
2023-02-06T23:08:55.248Z,12.97
2023-02-06T23:11:23.199Z,12.07
2023-02-06T23:13:54.520Z,12.57
2023-02-06T23:16:22.676Z,12.83
2023-02-06T23:18:50.435Z,12.77
2023-02-06T23:21:18.932Z,12.87
2023-02-06T23:23:46.697Z,13.67
2023-02-06T23:26:15.316Z,12.63
2023-02-06T23:28:43.634Z,13.13
2023-02-06T23:31:13.134Z,13.00
2023-02-06T23:33:41.108Z,13.23
2023-02-06T23:36:12.946Z,12.43
2023-02-06T23:38:40.948Z,13.40
2023-02-06T23:41:09.304Z,13.53
2023-02-06T23:43:37.143Z,13.00
2023-02-06T23:46:05.657Z,11.93
2023-02-06T23:48:35.368Z,12.50
2023-02-06T23:51:03.157Z,12.33
2023-02-06T23:53:31.140Z,12.47
2023-02-06T23:55:59.010Z,12.33
2023-02-06T23:58:26.907Z,12.83
